sensor_id;sensor_type;location;lat;lon;timestamp;pressure;altitude;pressure_sealevel;temperature;humidity
47166;BME280;32930;51.112;13.762;2023-05-23T00:01:05;98945.31;;;20.26;54.39
47166;BME280;32930;51.112;13.762;2023-05-23T00:03:32;98957.00;;;20.18;54.90
47166;BME280;32930;51.112;13.762;2023-05-23T00:06:06;98945.22;;;20.09;55.82
47166;BME280;32930;51.112;13.762;2023-05-23T00:11:04;98942.22;;;20.18;55.02
47166;BME280;32930;51.112;13.762;2023-05-23T00:16:13;98934.78;;;19.88;58.48
47166;BME280;32930;51.112;13.762;2023-05-23T00:18:40;98934.88;;;19.87;60.33
47166;BME280;32930;51.112;13.762;2023-05-23T00:21:12;98935.50;;;19.92;61.17
47166;BME280;32930;51.112;13.762;2023-05-23T00:23:43;98940.09;;;19.87;62.30
47166;BME280;32930;51.112;13.762;2023-05-23T00:26:09;98944.09;;;19.94;61.59
47166;BME280;32930;51.112;13.762;2023-05-23T00:28:36;98946.06;;;19.89;62.85
47166;BME280;32930;51.112;13.762;2023-05-23T00:31:04;98945.16;;;19.90;63.03
47166;BME280;32930;51.112;13.762;2023-05-23T00:33:32;98942.16;;;19.79;64.52
47166;BME280;32930;51.112;13.762;2023-05-23T00:38:56;98961.44;;;19.53;71.05
47166;BME280;32930;51.112;13.762;2023-05-23T00:43:59;98984.84;;;19.53;76.77
47166;BME280;32930;51.112;13.762;2023-05-23T00:46:26;98976.47;;;19.44;78.89
47166;BME280;32930;51.112;13.762;2023-05-23T00:48:53;98975.75;;;19.41;80.39
47166;BME280;32930;51.112;13.762;2023-05-23T00:51:19;98980.69;;;19.27;81.95
47166;BME280;32930;51.112;13.762;2023-05-23T00:53:46;98987.19;;;19.15;83.18
47166;BME280;32930;51.112;13.762;2023-05-23T00:56:12;98976.34;;;18.82;86.10
47166;BME280;32930;51.112;13.762;2023-05-23T00:58:40;98975.38;;;18.84;85.70
47166;BME280;32930;51.112;13.762;2023-05-23T01:01:07;98969.81;;;18.93;87.66
47166;BME280;32930;51.112;13.762;2023-05-23T01:06:05;98940.88;;;18.81;94.34
47166;BME280;32930;51.112;13.762;2023-05-23T01:08:31;98919.16;;;18.82;97.48
47166;BME280;32930;51.112;13.762;2023-05-23T01:11:03;98903.53;;;18.83;98.68
47166;BME280;32930;51.112;13.762;2023-05-23T01:13:41;98893.84;;;18.87;100.00
47166;BME280;32930;51.112;13.762;2023-05-23T01:16:34;98885.44;;;18.80;100.00
47166;BME280;32930;51.112;13.762;2023-05-23T01:19:44;98873.97;;;18.86;100.00
47166;BME280;32930;51.112;13.762;2023-05-23T01:22:48;98874.03;;;18.84;100.00
47166;BME280;32930;51.112;13.762;2023-05-23T01:28:10;98911.31;;;19.27;96.28
47166;BME280;32930;51.112;13.762;2023-05-23T01:30:39;98911.72;;;19.16;98.23
47166;BME280;32930;51.112;13.762;2023-05-23T01:35:39;98909.19;;;19.15;95.98
47166;BME280;32930;51.112;13.762;2023-05-23T01:38:07;98921.78;;;19.04;96.95
47166;BME280;32930;51.112;13.762;2023-05-23T01:40:32;98935.06;;;18.96;97.47
47166;BME280;32930;51.112;13.762;2023-05-23T01:42:58;98933.50;;;18.92;99.29
47166;BME280;32930;51.112;13.762;2023-05-23T01:45:25;98909.88;;;18.76;100.00
47166;BME280;32930;51.112;13.762;2023-05-23T01:47:53;98939.25;;;19.00;98.13
47166;BME280;32930;51.112;13.762;2023-05-23T01:50:19;98943.97;;;19.12;96.62
47166;BME280;32930;51.112;13.762;2023-05-23T01:52:46;98944.44;;;19.00;98.22
47166;BME280;32930;51.112;13.762;2023-05-23T01:55:15;98934.34;;;18.92;98.55
47166;BME280;32930;51.112;13.762;2023-05-23T01:57:45;98927.53;;;18.66;100.00
47166;BME280;32930;51.112;13.762;2023-05-23T02:00:14;98919.50;;;18.72;100.00
47166;BME280;32930;51.112;13.762;2023-05-23T02:02:40;98942.91;;;18.94;100.00
47166;BME280;32930;51.112;13.762;2023-05-23T02:05:05;98936.59;;;18.80;100.00
47166;BME280;32930;51.112;13.762;2023-05-23T02:07:31;98918.75;;;18.69;100.00
47166;BME280;32930;51.112;13.762;2023-05-23T02:12:30;98895.56;;;18.64;100.00
47166;BME280;32930;51.112;13.762;2023-05-23T02:14:55;98900.03;;;18.61;100.00
47166;BME280;32930;51.112;13.762;2023-05-23T02:17:21;98898.06;;;18.66;100.00
47166;BME280;32930;51.112;13.762;2023-05-23T02:19:48;98894.59;;;18.67;100.00
47166;BME280;32930;51.112;13.762;2023-05-23T02:22:14;98897.34;;;18.62;100.00
47166;BME280;32930;51.112;13.762;2023-05-23T02:24:40;98878.56;;;18.56;100.00
47166;BME280;32930;51.112;13.762;2023-05-23T02:27:05;98887.06;;;18.59;100.00
47166;BME280;32930;51.112;13.762;2023-05-23T02:29:31;98889.00;;;18.78;100.00
47166;BME280;32930;51.112;13.762;2023-05-23T02:34:29;98880.88;;;18.63;100.00
47166;BME280;32930;51.112;13.762;2023-05-23T02:36:57;98869.47;;;18.67;100.00
47166;BME280;32930;51.112;13.762;2023-05-23T02:39:22;98867.50;;;18.74;100.00
47166;BME280;32930;51.112;13.762;2023-05-23T02:41:48;98866.91;;;18.66;99.83
47166;BME280;32930;51.112;13.762;2023-05-23T02:44:14;98871.84;;;18.73;100.00
47166;BME280;32930;51.112;13.762;2023-05-23T02:46:39;98867.53;;;18.72;98.40
47166;BME280;32930;51.112;13.762;2023-05-23T02:51:38;98864.06;;;18.95;96.92
47166;BME280;32930;51.112;13.762;2023-05-23T02:54:03;98863.41;;;18.67;98.04
47166;BME280;32930;51.112;13.762;2023-05-23T02:56:29;98859.06;;;18.67;99.67
47166;BME280;32930;51.112;13.762;2023-05-23T02:58:55;98849.59;;;18.66;100.00
47166;BME280;32930;51.112;13.762;2023-05-23T03:01:20;98834.97;;;18.64;100.00
47166;BME280;32930;51.112;13.762;2023-05-23T03:03:46;98830.72;;;18.61;100.00
47166;BME280;32930;51.112;13.762;2023-05-23T03:08:43;98826.38;;;18.62;97.81
47166;BME280;32930;51.112;13.762;2023-05-23T03:11:09;98825.44;;;18.63;100.00
47166;BME280;32930;51.112;13.762;2023-05-23T03:13:35;98834.50;;;18.76;98.33
47166;BME280;32930;51.112;13.762;2023-05-23T03:16:01;98839.28;;;18.87;97.69
47166;BME280;32930;51.112;13.762;2023-05-23T03:18:26;98825.53;;;18.61;100.00
47166;BME280;32930;51.112;13.762;2023-05-23T03:20:52;98809.69;;;18.45;100.00
47166;BME280;32930;51.112;13.762;2023-05-23T03:23:18;98828.72;;;18.68;100.00
47166;BME280;32930;51.112;13.762;2023-05-23T03:25:43;98819.53;;;18.59;100.00
47166;BME280;32930;51.112;13.762;2023-05-23T03:28:09;98819.97;;;18.48;100.00
47166;BME280;32930;51.112;13.762;2023-05-23T03:30:36;98813.13;;;18.46;100.00
47166;BME280;32930;51.112;13.762;2023-05-23T03:33:02;98817.19;;;18.53;100.00
47166;BME280;32930;51.112;13.762;2023-05-23T03:35:28;98812.19;;;18.48;100.00
47166;BME280;32930;51.112;13.762;2023-05-23T03:37:53;98802.16;;;18.61;100.00
47166;BME280;32930;51.112;13.762;2023-05-23T03:40:19;98808.25;;;18.60;100.00
47166;BME280;32930;51.112;13.762;2023-05-23T03:42:47;98809.41;;;18.75;100.00
47166;BME280;32930;51.112;13.762;2023-05-23T03:45:13;98799.94;;;18.50;100.00
47166;BME280;32930;51.112;13.762;2023-05-23T03:47:39;98790.84;;;18.40;100.00
47166;BME280;32930;51.112;13.762;2023-05-23T03:50:05;98801.34;;;18.59;100.00
47166;BME280;32930;51.112;13.762;2023-05-23T03:52:30;98805.59;;;18.62;100.00
47166;BME280;32930;51.112;13.762;2023-05-23T03:54:56;98815.13;;;18.61;100.00
47166;BME280;32930;51.112;13.762;2023-05-23T03:57:22;98812.66;;;18.58;100.00
47166;BME280;32930;51.112;13.762;2023-05-23T03:59:47;98814.59;;;18.53;100.00
47166;BME280;32930;51.112;13.762;2023-05-23T04:02:13;98801.81;;;18.47;100.00
47166;BME280;32930;51.112;13.762;2023-05-23T04:04:38;98804.88;;;18.58;100.00
47166;BME280;32930;51.112;13.762;2023-05-23T04:07:04;98819.28;;;18.65;100.00
47166;BME280;32930;51.112;13.762;2023-05-23T04:09:30;98835.41;;;18.75;100.00
47166;BME280;32930;51.112;13.762;2023-05-23T04:11:56;98824.59;;;18.62;100.00
47166;BME280;32930;51.112;13.762;2023-05-23T04:14:22;98824.25;;;18.49;100.00
47166;BME280;32930;51.112;13.762;2023-05-23T04:16:52;98835.34;;;18.53;100.00
47166;BME280;32930;51.112;13.762;2023-05-23T04:19:18;98837.03;;;18.78;100.00
47166;BME280;32930;51.112;13.762;2023-05-23T04:21:43;98846.38;;;18.82;100.00
47166;BME280;32930;51.112;13.762;2023-05-23T04:26:41;98840.28;;;18.61;100.00
47166;BME280;32930;51.112;13.762;2023-05-23T04:29:07;98846.66;;;18.52;100.00
47166;BME280;32930;51.112;13.762;2023-05-23T04:31:32;98859.38;;;18.82;100.00
47166;BME280;32930;51.112;13.762;2023-05-23T04:33:58;98866.91;;;18.89;100.00
47166;BME280;32930;51.112;13.762;2023-05-23T04:36:24;98868.69;;;18.87;100.00
47166;BME280;32930;51.112;13.762;2023-05-23T04:38:49;98858.16;;;18.68;100.00
47166;BME280;32930;51.112;13.762;2023-05-23T04:41:15;98853.66;;;18.73;100.00
47166;BME280;32930;51.112;13.762;2023-05-23T04:46:13;98856.25;;;18.50;100.00
47166;BME280;32930;51.112;13.762;2023-05-23T04:48:39;98848.78;;;18.64;100.00
47166;BME280;32930;51.112;13.762;2023-05-23T04:51:06;98845.09;;;18.48;100.00
47166;BME280;32930;51.112;13.762;2023-05-23T04:53:33;98850.81;;;18.56;100.00
47166;BME280;32930;51.112;13.762;2023-05-23T04:55:59;98852.47;;;18.59;100.00
47166;BME280;32930;51.112;13.762;2023-05-23T04:58:25;98844.88;;;18.54;100.00
47166;BME280;32930;51.112;13.762;2023-05-23T05:00:50;98853.75;;;18.70;100.00
47166;BME280;32930;51.112;13.762;2023-05-23T05:03:16;98863.88;;;18.78;100.00
47166;BME280;32930;51.112;13.762;2023-05-23T05:05:42;98847.63;;;18.71;100.00
47166;BME280;32930;51.112;13.762;2023-05-23T05:08:07;98860.41;;;18.78;100.00
47166;BME280;32930;51.112;13.762;2023-05-23T05:10:33;98854.00;;;18.64;100.00
47166;BME280;32930;51.112;13.762;2023-05-23T05:12:58;98852.81;;;18.73;100.00
47166;BME280;32930;51.112;13.762;2023-05-23T05:15:24;98872.94;;;18.90;100.00
47166;BME280;32930;51.112;13.762;2023-05-23T05:17:50;98854.88;;;18.87;100.00
47166;BME280;32930;51.112;13.762;2023-05-23T05:20:19;98854.53;;;18.72;100.00
47166;BME280;32930;51.112;13.762;2023-05-23T05:22:46;98858.38;;;18.86;100.00
47166;BME280;32930;51.112;13.762;2023-05-23T05:25:11;98865.94;;;18.92;100.00
47166;BME280;32930;51.112;13.762;2023-05-23T05:27:38;98853.81;;;18.91;100.00
47166;BME280;32930;51.112;13.762;2023-05-23T05:30:08;98879.28;;;19.05;100.00
47166;BME280;32930;51.112;13.762;2023-05-23T05:32:34;98864.69;;;19.01;100.00
47166;BME280;32930;51.112;13.762;2023-05-23T05:35:03;98858.50;;;19.05;100.00
47166;BME280;32930;51.112;13.762;2023-05-23T05:37:28;98873.09;;;19.07;100.00
47166;BME280;32930;51.112;13.762;2023-05-23T05:39:54;98854.25;;;19.02;100.00
47166;BME280;32930;51.112;13.762;2023-05-23T05:42:21;98849.78;;;19.06;100.00
47166;BME280;32930;51.112;13.762;2023-05-23T05:44:47;98846.84;;;19.13;100.00
47166;BME280;32930;51.112;13.762;2023-05-23T05:47:13;98857.13;;;19.16;100.00
47166;BME280;32930;51.112;13.762;2023-05-23T05:49:39;98848.56;;;19.14;100.00
47166;BME280;32930;51.112;13.762;2023-05-23T05:52:07;98868.00;;;19.26;100.00
47166;BME280;32930;51.112;13.762;2023-05-23T05:54:33;98856.16;;;19.19;100.00
47166;BME280;32930;51.112;13.762;2023-05-23T05:56:59;98873.94;;;19.30;100.00
47166;BME280;32930;51.112;13.762;2023-05-23T05:59:24;98876.06;;;19.20;100.00
47166;BME280;32930;51.112;13.762;2023-05-23T06:04:21;98880.81;;;19.51;100.00
47166;BME280;32930;51.112;13.762;2023-05-23T06:06:47;98878.88;;;19.36;100.00
47166;BME280;32930;51.112;13.762;2023-05-23T06:09:12;98888.03;;;19.24;100.00
47166;BME280;32930;51.112;13.762;2023-05-23T06:11:38;98894.94;;;19.45;100.00
47166;BME280;32930;51.112;13.762;2023-05-23T06:14:05;98876.47;;;19.31;100.00
47166;BME280;32930;51.112;13.762;2023-05-23T06:16:38;98880.81;;;19.31;100.00
47166;BME280;32930;51.112;13.762;2023-05-23T06:19:04;98881.53;;;19.34;100.00
47166;BME280;32930;51.112;13.762;2023-05-23T06:21:30;98876.28;;;19.36;100.00
47166;BME280;32930;51.112;13.762;2023-05-23T06:23:55;98887.41;;;19.39;100.00
47166;BME280;32930;51.112;13.762;2023-05-23T06:26:21;98874.41;;;19.39;100.00
47166;BME280;32930;51.112;13.762;2023-05-23T06:28:46;98886.16;;;19.48;100.00
47166;BME280;32930;51.112;13.762;2023-05-23T06:31:12;98878.63;;;19.42;100.00
47166;BME280;32930;51.112;13.762;2023-05-23T06:33:39;98891.72;;;19.61;100.00
47166;BME280;32930;51.112;13.762;2023-05-23T06:36:06;98897.84;;;19.38;100.00
47166;BME280;32930;51.112;13.762;2023-05-23T06:38:31;98908.47;;;19.54;100.00
47166;BME280;32930;51.112;13.762;2023-05-23T06:41:00;98918.47;;;19.64;100.00
47166;BME280;32930;51.112;13.762;2023-05-23T06:43:26;98930.13;;;19.54;100.00
47166;BME280;32930;51.112;13.762;2023-05-23T06:45:53;98927.00;;;19.46;100.00
47166;BME280;32930;51.112;13.762;2023-05-23T06:48:18;98910.72;;;19.41;100.00
47166;BME280;32930;51.112;13.762;2023-05-23T06:50:45;98902.94;;;19.41;100.00
47166;BME280;32930;51.112;13.762;2023-05-23T06:53:13;98915.44;;;19.53;100.00
47166;BME280;32930;51.112;13.762;2023-05-23T06:56:01;98913.94;;;19.48;100.00
47166;BME280;32930;51.112;13.762;2023-05-23T06:58:27;98925.94;;;19.30;100.00
47166;BME280;32930;51.112;13.762;2023-05-23T07:00:53;98925.91;;;19.52;100.00
47166;BME280;32930;51.112;13.762;2023-05-23T07:09:37;98932.84;;;19.94;98.83
47166;BME280;32930;51.112;13.762;2023-05-23T07:12:04;98916.69;;;19.85;100.00
47166;BME280;32930;51.112;13.762;2023-05-23T07:14:30;98916.78;;;19.84;100.00
47166;BME280;32930;51.112;13.762;2023-05-23T07:16:56;98929.47;;;19.91;100.00
47166;BME280;32930;51.112;13.762;2023-05-23T07:19:21;98932.84;;;19.94;100.00
47166;BME280;32930;51.112;13.762;2023-05-23T07:21:47;98933.91;;;19.89;100.00
47166;BME280;32930;51.112;13.762;2023-05-23T07:24:12;98942.75;;;20.06;97.34
47166;BME280;32930;51.112;13.762;2023-05-23T07:26:38;98948.22;;;20.00;96.30
47166;BME280;32930;51.112;13.762;2023-05-23T07:29:03;98949.63;;;20.07;97.02
47166;BME280;32930;51.112;13.762;2023-05-23T07:31:30;98957.25;;;20.11;93.65
47166;BME280;32930;51.112;13.762;2023-05-23T07:33:55;98942.41;;;20.13;96.67
47166;BME280;32930;51.112;13.762;2023-05-23T07:36:21;98948.13;;;20.22;96.01
47166;BME280;32930;51.112;13.762;2023-05-23T07:38:47;98939.78;;;20.34;96.42
47166;BME280;32930;51.112;13.762;2023-05-23T07:41:13;98945.78;;;20.55;97.53
47166;BME280;32930;51.112;13.762;2023-05-23T07:43:39;98953.28;;;20.63;90.84
47166;BME280;32930;51.112;13.762;2023-05-23T07:46:05;98944.41;;;20.67;91.61
47166;BME280;32930;51.112;13.762;2023-05-23T07:48:30;98959.34;;;20.82;88.52
47166;BME280;32930;51.112;13.762;2023-05-23T07:50:56;98961.25;;;20.97;86.20
47166;BME280;32930;51.112;13.762;2023-05-23T07:53:21;98954.53;;;21.11;88.96
47166;BME280;32930;51.112;13.762;2023-05-23T07:55:47;98953.97;;;21.04;91.70
47166;BME280;32930;51.112;13.762;2023-05-23T07:58:13;98951.41;;;21.02;92.03
47166;BME280;32930;51.112;13.762;2023-05-23T08:00:38;98961.31;;;21.32;86.52
47166;BME280;32930;51.112;13.762;2023-05-23T08:03:05;98956.00;;;21.34;87.90
47166;BME280;32930;51.112;13.762;2023-05-23T08:05:31;98966.44;;;21.52;87.47
47166;BME280;32930;51.112;13.762;2023-05-23T08:07:57;98968.00;;;21.57;85.17
47166;BME280;32930;51.112;13.762;2023-05-23T08:10:22;98972.53;;;21.70;85.05
47166;BME280;32930;51.112;13.762;2023-05-23T08:12:48;98971.06;;;21.47;84.58
47166;BME280;32930;51.112;13.762;2023-05-23T08:15:13;98973.53;;;21.32;86.89
47166;BME280;32930;51.112;13.762;2023-05-23T08:17:39;98987.50;;;21.12;85.52
47166;BME280;32930;51.112;13.762;2023-05-23T08:20:05;98975.16;;;21.15;86.64
47166;BME280;32930;51.112;13.762;2023-05-23T08:22:32;98965.09;;;21.08;92.53
47166;BME280;32930;51.112;13.762;2023-05-23T08:24:58;98983.63;;;21.01;85.67
47166;BME280;32930;51.112;13.762;2023-05-23T08:27:23;98980.03;;;21.04;84.90
47166;BME280;32930;51.112;13.762;2023-05-23T08:29:49;98975.50;;;20.90;87.88
47166;BME280;32930;51.112;13.762;2023-05-23T08:32:14;98987.94;;;21.02;85.42
47166;BME280;32930;51.112;13.762;2023-05-23T08:34:40;98980.56;;;20.93;87.42
47166;BME280;32930;51.112;13.762;2023-05-23T08:37:06;98987.47;;;20.94;86.39
47166;BME280;32930;51.112;13.762;2023-05-23T08:39:31;98992.03;;;20.89;88.13
47166;BME280;32930;51.112;13.762;2023-05-23T08:41:57;98986.94;;;20.86;87.02
47166;BME280;32930;51.112;13.762;2023-05-23T08:44:23;98986.53;;;20.95;87.00
47166;BME280;32930;51.112;13.762;2023-05-23T08:46:52;98994.44;;;20.94;87.08
47166;BME280;32930;51.112;13.762;2023-05-23T08:49:18;98993.28;;;20.99;87.84
47166;BME280;32930;51.112;13.762;2023-05-23T08:51:44;98985.59;;;20.96;90.42
47166;BME280;32930;51.112;13.762;2023-05-23T08:54:11;98993.28;;;20.99;88.18
47166;BME280;32930;51.112;13.762;2023-05-23T08:56:44;98996.34;;;21.09;83.55
47166;BME280;32930;51.112;13.762;2023-05-23T08:59:10;99000.63;;;21.10;86.12
47166;BME280;32930;51.112;13.762;2023-05-23T09:01:37;99005.19;;;20.86;84.32
47166;BME280;32930;51.112;13.762;2023-05-23T09:04:05;99001.84;;;21.03;87.09
47166;BME280;32930;51.112;13.762;2023-05-23T09:06:31;99006.53;;;21.14;83.67
47166;BME280;32930;51.112;13.762;2023-05-23T09:08:57;99005.63;;;21.15;84.72
47166;BME280;32930;51.112;13.762;2023-05-23T09:11:23;99007.25;;;20.98;85.47
47166;BME280;32930;51.112;13.762;2023-05-23T09:16:22;99030.72;;;20.98;82.20
47166;BME280;32930;51.112;13.762;2023-05-23T09:18:47;99023.31;;;20.89;82.73
47166;BME280;32930;51.112;13.762;2023-05-23T09:21:13;99021.13;;;20.80;85.47
47166;BME280;32930;51.112;13.762;2023-05-23T09:23:40;99021.25;;;20.77;87.84
47166;BME280;32930;51.112;13.762;2023-05-23T09:26:10;99022.34;;;20.92;87.70
47166;BME280;32930;51.112;13.762;2023-05-23T09:28:38;99016.00;;;20.97;86.26
47166;BME280;32930;51.112;13.762;2023-05-23T09:31:06;99020.94;;;20.85;86.90
47166;BME280;32930;51.112;13.762;2023-05-23T09:36:10;99032.34;;;20.82;87.41
47166;BME280;32930;51.112;13.762;2023-05-23T09:38:40;99041.69;;;20.67;86.88
47166;BME280;32930;51.112;13.762;2023-05-23T09:41:06;99035.13;;;20.77;85.73
47166;BME280;32930;51.112;13.762;2023-05-23T09:43:32;99028.47;;;20.72;86.69
47166;BME280;32930;51.112;13.762;2023-05-23T09:46:09;99030.81;;;20.57;85.24
47166;BME280;32930;51.112;13.762;2023-05-23T09:48:35;99026.13;;;20.66;89.70
47166;BME280;32930;51.112;13.762;2023-05-23T09:51:05;99026.00;;;20.69;89.36
47166;BME280;32930;51.112;13.762;2023-05-23T09:53:31;99029.34;;;20.71;88.31
47166;BME280;32930;51.112;13.762;2023-05-23T09:55:58;99034.56;;;20.71;87.76
47166;BME280;32930;51.112;13.762;2023-05-23T09:58:27;99038.19;;;20.68;88.79
47166;BME280;32930;51.112;13.762;2023-05-23T10:00:55;99034.84;;;20.65;90.73
47166;BME280;32930;51.112;13.762;2023-05-23T10:03:33;99046.53;;;20.56;89.35
47166;BME280;32930;51.112;13.762;2023-05-23T10:09:02;99068.41;;;20.72;84.33
47166;BME280;32930;51.112;13.762;2023-05-23T10:14:01;99059.66;;;20.73;81.16
47166;BME280;32930;51.112;13.762;2023-05-23T10:17:13;99070.34;;;20.67;81.40
47166;BME280;32930;51.112;13.762;2023-05-23T10:19:50;99071.31;;;20.65;77.88
47166;BME280;32930;51.112;13.762;2023-05-23T10:22:19;99066.06;;;20.66;78.91
47166;BME280;32930;51.112;13.762;2023-05-23T10:24:46;99064.97;;;20.51;81.53
47166;BME280;32930;51.112;13.762;2023-05-23T10:27:13;99063.63;;;20.62;79.06
47166;BME280;32930;51.112;13.762;2023-05-23T10:29:39;99071.84;;;20.73;77.18
47166;BME280;32930;51.112;13.762;2023-05-23T10:32:06;99071.19;;;20.68;76.25
47166;BME280;32930;51.112;13.762;2023-05-23T10:37:13;99074.38;;;21.14;74.38
47166;BME280;32930;51.112;13.762;2023-05-23T10:39:58;99080.50;;;20.94;76.92
47166;BME280;32930;51.112;13.762;2023-05-23T10:45:21;99075.22;;;21.33;78.30
47166;BME280;32930;51.112;13.762;2023-05-23T10:47:48;99080.41;;;21.33;75.43
47166;BME280;32930;51.112;13.762;2023-05-23T10:50:33;99075.91;;;21.56;76.79
47166;BME280;32930;51.112;13.762;2023-05-23T10:53:00;99092.25;;;21.42;72.57
47166;BME280;32930;51.112;13.762;2023-05-23T10:55:33;99073.44;;;21.52;74.43
47166;BME280;32930;51.112;13.762;2023-05-23T10:58:15;99079.34;;;21.39;74.71
47166;BME280;32930;51.112;13.762;2023-05-23T11:00:54;99083.56;;;21.41;73.63
47166;BME280;32930;51.112;13.762;2023-05-23T11:09:02;99081.66;;;21.45;75.04
47166;BME280;32930;51.112;13.762;2023-05-23T11:14:13;99091.50;;;21.76;77.40
47166;BME280;32930;51.112;13.762;2023-05-23T11:16:41;99092.03;;;22.19;70.32
47166;BME280;32930;51.112;13.762;2023-05-23T11:21:49;99096.53;;;21.98;73.97
47166;BME280;32930;51.112;13.762;2023-05-23T11:24:15;99104.41;;;21.79;74.48
47166;BME280;32930;51.112;13.762;2023-05-23T11:26:53;99096.97;;;21.89;68.18
47166;BME280;32930;51.112;13.762;2023-05-23T11:29:19;99097.31;;;21.81;75.74
47166;BME280;32930;51.112;13.762;2023-05-23T11:31:45;99101.53;;;21.66;73.90
47166;BME280;32930;51.112;13.762;2023-05-23T11:34:11;99099.34;;;21.57;72.60
47166;BME280;32930;51.112;13.762;2023-05-23T11:36:38;99103.94;;;21.52;74.37
47166;BME280;32930;51.112;13.762;2023-05-23T11:39:05;99100.69;;;21.66;71.16
47166;BME280;32930;51.112;13.762;2023-05-23T11:41:31;99104.16;;;21.47;72.24
47166;BME280;32930;51.112;13.762;2023-05-23T11:43:58;99110.56;;;21.59;70.75
47166;BME280;32930;51.112;13.762;2023-05-23T11:46:26;99107.19;;;21.38;72.49
47166;BME280;32930;51.112;13.762;2023-05-23T11:48:52;99102.72;;;21.40;68.85
47166;BME280;32930;51.112;13.762;2023-05-23T11:51:17;99107.25;;;21.37;70.62
47166;BME280;32930;51.112;13.762;2023-05-23T11:53:44;99109.78;;;21.19;72.09
47166;BME280;32930;51.112;13.762;2023-05-23T11:56:14;99102.56;;;21.24;70.30
47166;BME280;32930;51.112;13.762;2023-05-23T11:58:40;99103.72;;;21.19;69.57
47166;BME280;32930;51.112;13.762;2023-05-23T12:01:11;99106.50;;;21.14;71.94
47166;BME280;32930;51.112;13.762;2023-05-23T12:03:45;99105.50;;;20.98;73.42
47166;BME280;32930;51.112;13.762;2023-05-23T12:06:17;99106.28;;;21.00;72.90
47166;BME280;32930;51.112;13.762;2023-05-23T12:08:43;99100.19;;;20.80;72.94
47166;BME280;32930;51.112;13.762;2023-05-23T12:11:09;99105.88;;;20.90;73.36
47166;BME280;32930;51.112;13.762;2023-05-23T12:13:36;99102.91;;;20.77;74.21
47166;BME280;32930;51.112;13.762;2023-05-23T12:18:36;99101.41;;;20.92;75.11
47166;BME280;32930;51.112;13.762;2023-05-23T12:23:41;99101.75;;;20.64;74.93
47166;BME280;32930;51.112;13.762;2023-05-23T12:26:07;99106.88;;;21.06;72.53
47166;BME280;32930;51.112;13.762;2023-05-23T12:28:39;99101.84;;;21.02;74.15
47166;BME280;32930;51.112;13.762;2023-05-23T12:31:11;99105.38;;;21.01;75.63
47166;BME280;32930;51.112;13.762;2023-05-23T12:33:41;99104.00;;;20.92;72.90
47166;BME280;32930;51.112;13.762;2023-05-23T12:36:11;99099.69;;;20.72;74.84
47166;BME280;32930;51.112;13.762;2023-05-23T12:38:37;99112.06;;;20.67;77.01
47166;BME280;32930;51.112;13.762;2023-05-23T12:41:07;99113.56;;;20.73;76.06
47166;BME280;32930;51.112;13.762;2023-05-23T12:43:37;99110.16;;;20.50;77.41
47166;BME280;32930;51.112;13.762;2023-05-23T12:46:03;99111.84;;;20.31;78.48
47166;BME280;32930;51.112;13.762;2023-05-23T12:48:29;99117.44;;;20.42;79.31
47166;BME280;32930;51.112;13.762;2023-05-23T12:50:54;99119.50;;;20.56;75.85
47166;BME280;32930;51.112;13.762;2023-05-23T12:53:20;99121.94;;;20.38;78.19
47166;BME280;32930;51.112;13.762;2023-05-23T12:55:46;99120.41;;;20.33;79.07
47166;BME280;32930;51.112;13.762;2023-05-23T12:58:12;99126.03;;;20.44;74.04
47166;BME280;32930;51.112;13.762;2023-05-23T13:00:37;99128.09;;;20.36;76.02
47166;BME280;32930;51.112;13.762;2023-05-23T13:03:03;99128.91;;;20.38;72.61
47166;BME280;32930;51.112;13.762;2023-05-23T13:05:30;99126.09;;;20.22;75.01
47166;BME280;32930;51.112;13.762;2023-05-23T13:10:28;99130.66;;;20.37;74.22
47166;BME280;32930;51.112;13.762;2023-05-23T13:12:54;99135.81;;;20.39;70.95
47166;BME280;32930;51.112;13.762;2023-05-23T13:15:19;99132.09;;;20.24;73.14
47166;BME280;32930;51.112;13.762;2023-05-23T13:17:45;99134.16;;;20.16;74.16
47166;BME280;32930;51.112;13.762;2023-05-23T13:20:11;99122.81;;;20.17;73.68
47166;BME280;32930;51.112;13.762;2023-05-23T13:22:39;99127.06;;;20.20;72.98
47166;BME280;32930;51.112;13.762;2023-05-23T13:25:08;99132.50;;;20.13;73.80
47166;BME280;32930;51.112;13.762;2023-05-23T13:27:33;99139.81;;;20.05;72.98
47166;BME280;32930;51.112;13.762;2023-05-23T13:29:59;99138.41;;;19.97;73.60
47166;BME280;32930;51.112;13.762;2023-05-23T13:32:26;99132.97;;;20.23;73.46
47166;BME280;32930;51.112;13.762;2023-05-23T13:34:51;99136.41;;;20.03;71.71
47166;BME280;32930;51.112;13.762;2023-05-23T13:37:17;99134.72;;;20.02;72.14
47166;BME280;32930;51.112;13.762;2023-05-23T13:39:43;99140.44;;;20.10;71.63
47166;BME280;32930;51.112;13.762;2023-05-23T13:42:08;99141.13;;;20.16;73.96
47166;BME280;32930;51.112;13.762;2023-05-23T13:44:35;99140.28;;;20.15;74.65
47166;BME280;32930;51.112;13.762;2023-05-23T13:47:11;99137.31;;;20.02;73.85
47166;BME280;32930;51.112;13.762;2023-05-23T13:49:37;99145.78;;;20.07;72.51
47166;BME280;32930;51.112;13.762;2023-05-23T13:52:05;99148.38;;;20.07;74.71
47166;BME280;32930;51.112;13.762;2023-05-23T13:54:32;99145.72;;;20.09;74.31
47166;BME280;32930;51.112;13.762;2023-05-23T13:56:58;99152.88;;;20.04;75.28
47166;BME280;32930;51.112;13.762;2023-05-23T14:02:06;99157.34;;;20.00;74.36
47166;BME280;32930;51.112;13.762;2023-05-23T14:17:56;99159.59;;;20.09;74.76
47166;BME280;32930;51.112;13.762;2023-05-23T14:30:48;99168.31;;;20.08;76.94